createdAt,value
2022-12-01T00:01:21.457Z,38.03
2022-12-01T00:03:49.552Z,44.65
2022-12-01T00:06:21.760Z,42.08
2022-12-01T00:09:09.210Z,39.70
2022-12-01T00:11:39.367Z,37.10
2022-12-01T00:14:07.755Z,37.25
2022-12-01T00:16:37.050Z,40.90
2022-12-01T00:19:04.914Z,48.60
2022-12-01T00:21:32.761Z,40.08
2022-12-01T00:24:00.580Z,44.67
2022-12-01T00:26:28.607Z,41.30
2022-12-01T00:28:59.495Z,43.17
2022-12-01T00:31:28.098Z,43.10
2022-12-01T00:33:56.553Z,37.70
2022-12-01T00:36:24.511Z,43.28
2022-12-01T00:38:53.845Z,41.97
2022-12-01T00:41:22.022Z,48.03
2022-12-01T00:43:50.088Z,39.22
2022-12-01T00:46:19.471Z,38.30
2022-12-01T00:48:47.431Z,43.67
2022-12-01T00:51:15.315Z,41.42
2022-12-01T00:53:43.146Z,43.13
2022-12-01T00:56:10.980Z,43.38
2022-12-01T00:58:38.879Z,38.33
2022-12-01T01:01:07.018Z,40.70
2022-12-01T01:03:36.275Z,40.17
2022-12-01T01:06:09.227Z,40.63
2022-12-01T01:08:37.514Z,36.88
2022-12-01T01:11:06.483Z,40.85
2022-12-01T01:13:35.713Z,41.95
2022-12-01T01:16:05.523Z,50.67
2022-12-01T01:18:33.606Z,52.38
2022-12-01T01:21:06.058Z,47.88
2022-12-01T01:23:34.034Z,51.00
2022-12-01T01:26:03.820Z,51.17
2022-12-01T01:28:31.807Z,59.53
2022-12-01T01:30:59.846Z,48.65
2022-12-01T01:33:27.702Z,51.05
2022-12-01T01:35:59.127Z,53.45
2022-12-01T01:38:28.531Z,39.22
2022-12-01T01:40:56.857Z,56.58
2022-12-01T01:43:41.158Z,47.25
2022-12-01T01:46:11.468Z,48.17
2022-12-01T01:48:40.818Z,44.42
2022-12-01T01:51:09.644Z,49.88
2022-12-01T01:53:38.963Z,51.25
2022-12-01T01:56:08.670Z,53.40
2022-12-01T01:58:38.392Z,45.45
2022-12-01T02:01:07.554Z,50.72
2022-12-01T02:03:38.112Z,50.92
2022-12-01T02:06:07.371Z,51.13
2022-12-01T02:08:38.246Z,57.50
2022-12-01T02:11:34.436Z,46.55
2022-12-01T02:14:09.931Z,50.65
2022-12-01T02:16:44.367Z,53.92
2022-12-01T02:19:39.617Z,58.40
2022-12-01T02:22:23.192Z,57.85
2022-12-01T02:25:12.695Z,54.13
2022-12-01T02:28:07.728Z,54.30
2022-12-01T02:30:42.027Z,55.88
2022-12-01T02:33:18.341Z,55.72
2022-12-01T02:35:51.490Z,54.05
2022-12-01T02:38:27.200Z,47.67
2022-12-01T02:41:01.596Z,55.40
2022-12-01T02:43:35.133Z,50.80
2022-12-01T02:46:10.702Z,56.00
2022-12-01T02:48:40.928Z,53.65
2022-12-01T02:51:12.886Z,50.85
2022-12-01T02:53:40.794Z,48.67
2022-12-01T02:56:11.762Z,49.10
2022-12-01T02:58:39.987Z,48.45
2022-12-01T03:01:46.629Z,44.58
2022-12-01T03:04:32.764Z,50.28
2022-12-01T03:07:12.047Z,44.67
2022-12-01T03:09:48.463Z,53.28
2022-12-01T03:12:22.109Z,48.13
2022-12-01T03:15:01.546Z,51.10
2022-12-01T03:17:38.227Z,45.92
2022-12-01T03:20:11.700Z,46.63
2022-12-01T03:22:44.651Z,47.38
2022-12-01T03:25:14.058Z,47.33
2022-12-01T03:28:06.683Z,45.47
2022-12-01T03:30:35.966Z,47.25
2022-12-01T03:33:10.296Z,45.20
2022-12-01T03:35:43.868Z,45.47
2022-12-01T03:38:18.635Z,48.70
2022-12-01T03:40:50.372Z,48.65
2022-12-01T03:43:22.603Z,43.80
2022-12-01T03:45:56.280Z,47.40
2022-12-01T03:48:26.600Z,47.90
2022-12-01T03:51:06.130Z,44.53
2022-12-01T03:53:39.591Z,41.85
2022-12-01T03:56:08.968Z,48.80
2022-12-01T03:58:41.875Z,47.33
2022-12-01T04:01:10.607Z,43.83
2022-12-01T04:03:39.794Z,44.05
2022-12-01T04:06:08.178Z,45.28
2022-12-01T04:08:37.464Z,52.22
2022-12-01T04:11:32.253Z,46.15
2022-12-01T04:13:59.893Z,43.22
2022-12-01T04:16:27.853Z,50.58
2022-12-01T04:18:57.090Z,45.40
2022-12-01T04:21:24.928Z,41.95
2022-12-01T04:24:01.710Z,44.13
2022-12-01T04:26:30.671Z,44.20
2022-12-01T04:28:58.919Z,46.38
2022-12-01T04:31:26.916Z,44.15
2022-12-01T04:33:56.816Z,44.20
2022-12-01T04:36:24.738Z,42.45
2022-12-01T04:38:53.103Z,44.67
2022-12-01T04:41:21.153Z,45.03
2022-12-01T04:43:49.027Z,42.25
2022-12-01T04:46:17.123Z,40.83
2022-12-01T04:48:45.263Z,46.65
2022-12-01T04:51:14.444Z,43.42
2022-12-01T04:53:42.365Z,43.83
2022-12-01T04:56:10.228Z,39.20
2022-12-01T04:58:38.631Z,44.35
2022-12-01T05:01:08.815Z,40.17
2022-12-01T05:03:38.263Z,44.13
2022-12-01T05:06:08.131Z,41.92
2022-12-01T05:08:37.579Z,47.53
2022-12-01T05:11:07.594Z,46.60
2022-12-01T05:13:37.293Z,44.50
2022-12-01T05:16:06.990Z,44.88
2022-12-01T05:18:35.161Z,43.67
2022-12-01T05:21:03.918Z,41.72
2022-12-01T05:23:33.207Z,43.20
2022-12-01T05:26:03.163Z,41.83
2022-12-01T05:28:31.555Z,44.92
2022-12-01T05:30:59.783Z,47.22
2022-12-01T05:33:29.160Z,46.33
2022-12-01T05:35:57.437Z,44.75
2022-12-01T05:38:25.398Z,52.65
2022-12-01T05:40:53.873Z,53.17
2022-12-01T05:43:29.125Z,51.22
2022-12-01T05:45:58.121Z,58.55
2022-12-01T05:48:26.490Z,50.65
2022-12-01T05:50:54.436Z,51.22
2022-12-01T05:53:22.707Z,54.80
2022-12-01T05:55:54.245Z,53.30
2022-12-01T05:58:23.907Z,41.13
2022-12-01T06:00:51.804Z,53.67
2022-12-01T06:03:19.679Z,59.47
2022-12-01T06:05:47.520Z,55.25
2022-12-01T06:08:15.394Z,51.92
2022-12-01T06:10:43.311Z,50.13
2022-12-01T06:13:11.190Z,56.85
2022-12-01T06:15:40.427Z,48.17
2022-12-01T06:18:08.277Z,48.40
2022-12-01T06:20:36.127Z,38.92
2022-12-01T06:23:03.975Z,36.13
2022-12-01T06:25:31.837Z,33.83
2022-12-01T06:28:00.105Z,38.03
2022-12-01T06:30:28.141Z,34.75
2022-12-01T06:32:57.447Z,33.30
2022-12-01T06:35:25.254Z,30.75
2022-12-01T06:37:54.258Z,33.53
2022-12-01T06:40:22.286Z,34.00
2022-12-01T06:42:50.134Z,37.85
2022-12-01T06:45:18.130Z,36.63
2022-12-01T06:47:48.279Z,34.63
2022-12-01T06:50:17.630Z,32.47
2022-12-01T06:52:45.661Z,35.97
2022-12-01T06:55:13.721Z,36.90
2022-12-01T06:57:43.186Z,35.15
2022-12-01T07:00:13.505Z,38.78
2022-12-01T07:02:41.961Z,36.97
2022-12-01T07:05:10.544Z,32.72
2022-12-01T07:07:40.618Z,32.67
2022-12-01T07:10:10.437Z,36.78
2022-12-01T07:12:38.743Z,34.47
2022-12-01T07:15:07.986Z,35.45
2022-12-01T07:17:36.501Z,33.60
2022-12-01T07:20:05.016Z,37.95
2022-12-01T07:22:38.733Z,34.20
2022-12-01T07:25:08.909Z,37.60
2022-12-01T07:27:36.767Z,37.35
2022-12-01T07:30:05.064Z,34.15
2022-12-01T07:32:32.973Z,34.53
2022-12-01T07:35:00.836Z,36.38
2022-12-01T07:37:28.726Z,36.08
2022-12-01T07:39:56.680Z,36.53
2022-12-01T07:42:25.900Z,35.65
2022-12-01T07:44:53.864Z,36.88
2022-12-01T07:47:21.732Z,35.25
2022-12-01T07:49:49.729Z,36.85
2022-12-01T07:52:17.815Z,34.92
2022-12-01T07:54:45.651Z,35.60
2022-12-01T07:57:14.895Z,32.03
2022-12-01T07:59:44.071Z,34.83
2022-12-01T08:02:12.395Z,35.67
2022-12-01T08:04:40.315Z,31.65
2022-12-01T08:07:08.157Z,30.50
2022-12-01T08:09:36.360Z,30.42
2022-12-01T08:12:04.403Z,30.65
2022-12-01T08:14:32.293Z,34.00
2022-12-01T08:17:01.531Z,35.47
2022-12-01T08:19:29.463Z,32.78
2022-12-01T08:21:57.742Z,28.73
2022-12-01T08:24:25.615Z,34.45
2022-12-01T08:26:53.454Z,34.15
2022-12-01T08:29:21.342Z,32.97
2022-12-01T08:31:49.302Z,32.65
2022-12-01T08:34:18.798Z,32.13
2022-12-01T08:36:46.654Z,35.53
2022-12-01T08:39:14.796Z,38.60
2022-12-01T08:41:42.890Z,34.65
2022-12-01T08:44:11.140Z,37.47
2022-12-01T08:46:39.131Z,32.85
2022-12-01T08:49:07.627Z,32.35
2022-12-01T08:51:37.350Z,31.17
2022-12-01T08:54:05.430Z,36.38
2022-12-01T08:56:36.003Z,35.78
2022-12-01T08:59:04.011Z,36.05
2022-12-01T09:01:32.787Z,34.33
2022-12-01T09:04:09.125Z,36.13
2022-12-01T09:06:42.404Z,35.22
2022-12-01T09:09:12.067Z,36.42
2022-12-01T09:11:40.277Z,34.65
2022-12-01T09:14:08.252Z,31.25
2022-12-01T09:16:36.210Z,32.42
2022-12-01T09:19:04.413Z,33.03
2022-12-01T09:21:34.235Z,34.25
2022-12-01T09:24:04.254Z,32.30
2022-12-01T09:26:32.892Z,33.30
2022-12-01T09:29:02.913Z,31.33
2022-12-01T09:31:31.354Z,32.10
2022-12-01T09:34:00.511Z,34.20
2022-12-01T09:36:28.819Z,33.00
2022-12-01T09:38:56.696Z,31.88
2022-12-01T09:41:29.312Z,33.55
2022-12-01T09:44:02.435Z,33.60
2022-12-01T09:46:36.204Z,34.08
2022-12-01T09:49:06.081Z,33.10
2022-12-01T09:51:36.209Z,35.80
2022-12-01T09:54:04.765Z,32.70
2022-12-01T09:56:41.316Z,33.60
2022-12-01T09:59:17.641Z,33.65
2022-12-01T10:01:47.714Z,33.10
2022-12-01T10:04:20.870Z,34.53
2022-12-01T10:06:52.816Z,30.17
2022-12-01T10:09:25.498Z,32.65
2022-12-01T10:12:00.234Z,32.15
2022-12-01T10:14:37.891Z,34.67
2022-12-01T10:17:16.748Z,29.75
2022-12-01T10:19:55.769Z,31.58
2022-12-01T10:22:40.616Z,36.75
2022-12-01T10:25:21.958Z,32.60
2022-12-01T10:28:06.241Z,31.67
2022-12-01T10:30:39.235Z,34.05
2022-12-01T10:33:18.751Z,36.63
2022-12-01T10:35:46.902Z,30.42
2022-12-01T10:38:20.883Z,33.35
2022-12-01T10:40:50.829Z,31.70
2022-12-01T10:43:21.740Z,27.77
2022-12-01T10:45:49.720Z,30.00
2022-12-01T10:48:19.517Z,30.67
2022-12-01T10:50:49.200Z,33.45
2022-12-01T10:53:31.901Z,31.70
2022-12-01T10:56:04.964Z,32.95
2022-12-01T10:58:40.757Z,30.83
2022-12-01T11:01:16.534Z,30.60
2022-12-01T11:03:49.840Z,32.17
2022-12-01T11:06:23.408Z,36.30
2022-12-01T11:08:54.754Z,34.72
2022-12-01T11:11:27.332Z,35.40
2022-12-01T11:13:57.928Z,31.75
2022-12-01T11:16:41.009Z,29.90
2022-12-01T11:19:23.321Z,30.83
2022-12-01T11:21:56.792Z,33.30
2022-12-01T11:24:34.648Z,31.58
2022-12-01T11:27:02.639Z,32.97
2022-12-01T11:29:36.755Z,31.42
2022-12-01T11:32:17.293Z,32.38
2022-12-01T11:34:51.047Z,31.08
2022-12-01T11:37:21.547Z,32.63
2022-12-01T11:39:50.336Z,31.50
2022-12-01T11:42:24.916Z,31.73
2022-12-01T11:44:56.769Z,29.23
2022-12-01T11:47:26.309Z,30.85
2022-12-01T11:49:56.580Z,30.50
2022-12-01T11:52:28.324Z,31.70
2022-12-01T11:55:03.271Z,30.75
2022-12-01T11:57:36.215Z,33.80
2022-12-01T12:00:13.433Z,31.33
2022-12-01T12:02:51.169Z,33.78
2022-12-01T12:05:45.273Z,30.13
2022-12-01T12:08:22.153Z,34.17
2022-12-01T12:10:59.521Z,34.60
2022-12-01T12:14:12.221Z,28.85
2022-12-01T12:16:53.420Z,28.80
2022-12-01T12:20:00.342Z,25.05
2022-12-01T12:22:36.580Z,31.48
2022-12-01T12:25:18.607Z,31.58
2022-12-01T12:27:53.286Z,27.55
2022-12-01T12:30:26.152Z,31.65
2022-12-01T12:33:18.840Z,31.17
2022-12-01T12:38:38.769Z,29.77
2022-12-01T12:41:17.741Z,30.98
2022-12-01T12:43:57.744Z,29.25
2022-12-01T12:46:34.702Z,29.95
2022-12-01T12:49:20.219Z,29.98
2022-12-01T12:51:54.829Z,34.45
2022-12-01T12:54:28.951Z,31.38
2022-12-01T12:57:01.624Z,30.08
2022-12-01T12:59:35.297Z,29.65
2022-12-01T13:02:10.703Z,31.17
2022-12-01T13:04:44.570Z,29.98
2022-12-01T13:07:24.031Z,28.83
2022-12-01T13:09:58.272Z,29.80
2022-12-01T13:12:31.506Z,28.63
2022-12-01T13:15:06.141Z,27.35
2022-12-01T13:17:37.789Z,30.90
2022-12-01T13:20:08.746Z,28.83
2022-12-01T13:22:37.915Z,23.42
2022-12-01T13:25:07.103Z,24.75
2022-12-01T13:27:38.403Z,26.85
2022-12-01T13:30:17.371Z,27.63
2022-12-01T13:32:45.334Z,25.67
2022-12-01T13:35:26.757Z,24.15
2022-12-01T13:38:15.106Z,22.08
2022-12-01T13:40:43.029Z,29.45
2022-12-01T13:43:19.275Z,27.50
2022-12-01T13:45:48.172Z,26.80
2022-12-01T13:48:31.020Z,23.90
2022-12-01T13:51:02.411Z,31.10
2022-12-01T13:53:32.411Z,31.23
2022-12-01T13:56:24.331Z,29.40
2022-12-01T13:58:54.258Z,29.88
2022-12-01T14:01:44.557Z,27.88
2022-12-01T14:04:30.604Z,29.00
2022-12-01T14:07:27.598Z,29.67
2022-12-01T14:09:59.585Z,30.58
2022-12-01T14:12:31.461Z,28.85
2022-12-01T14:15:03.442Z,29.70
2022-12-01T14:17:33.075Z,30.88
2022-12-01T14:20:19.271Z,30.73
2022-12-01T14:22:50.355Z,28.15
2022-12-01T14:25:26.854Z,28.08
2022-12-01T14:27:56.596Z,28.88
2022-12-01T14:31:01.945Z,28.48
2022-12-01T14:33:45.376Z,26.55
2022-12-01T14:36:26.293Z,29.25
2022-12-01T14:39:03.029Z,28.63
2022-12-01T14:41:35.127Z,28.63
2022-12-01T14:44:06.670Z,26.55
2022-12-01T14:46:42.191Z,27.38
2022-12-01T14:49:17.742Z,33.17
2022-12-01T14:51:48.208Z,27.23
2022-12-01T14:54:24.681Z,33.50
2022-12-01T14:56:55.055Z,28.30
2022-12-01T14:59:26.196Z,28.38
2022-12-01T15:01:57.186Z,36.28
2022-12-01T15:04:26.072Z,29.80
2022-12-01T15:06:57.094Z,31.33
2022-12-01T15:09:35.160Z,29.98
2022-12-01T15:12:07.225Z,30.15
2022-12-01T15:14:37.185Z,30.88
2022-12-01T15:17:08.727Z,29.50
2022-12-01T15:19:39.215Z,31.20
2022-12-01T15:22:15.484Z,29.38
2022-12-01T15:24:45.684Z,36.03
2022-12-01T15:27:28.809Z,30.77
2022-12-01T15:29:58.378Z,32.30
2022-12-01T15:32:27.910Z,32.25
2022-12-01T15:35:01.564Z,30.10
2022-12-01T15:37:33.171Z,27.15
2022-12-01T15:40:59.882Z,34.17
2022-12-01T15:43:05.446Z,29.45
2022-12-01T15:45:47.093Z,27.83
2022-12-01T15:48:25.777Z,31.10
2022-12-01T15:51:04.560Z,32.97
2022-12-01T15:53:35.181Z,31.48
2022-12-01T15:56:07.220Z,36.85
2022-12-01T15:58:41.106Z,32.85
2022-12-01T16:01:13.029Z,29.95
2022-12-01T16:03:55.868Z,27.48
2022-12-01T16:06:26.531Z,27.85
2022-12-01T16:08:59.251Z,29.83
2022-12-01T16:11:29.073Z,30.13
2022-12-01T16:14:04.174Z,28.20
2022-12-01T16:16:44.223Z,26.23
2022-12-01T16:19:27.731Z,32.03
2022-12-01T16:21:59.817Z,27.02
2022-12-01T16:24:31.341Z,29.17
2022-12-01T16:27:04.178Z,33.25
2022-12-01T16:29:35.661Z,28.42
2022-12-01T16:32:21.294Z,33.30
2022-12-01T16:34:51.369Z,33.53
2022-12-01T16:37:19.473Z,34.28
2022-12-01T16:39:47.299Z,35.38
2022-12-01T16:42:18.237Z,30.38
2022-12-01T16:44:46.690Z,32.85
2022-12-01T16:47:17.028Z,34.33
2022-12-01T16:49:45.013Z,31.05
2022-12-01T16:55:00.976Z,29.63
2022-12-01T16:57:30.630Z,29.00
2022-12-01T16:59:58.766Z,30.48
2022-12-01T17:02:28.614Z,31.63
2022-12-01T17:04:59.557Z,33.42
2022-12-01T17:07:27.546Z,30.92
2022-12-01T17:10:13.626Z,28.25
2022-12-01T17:12:42.991Z,32.05
2022-12-01T17:15:11.592Z,28.90
2022-12-01T17:17:39.850Z,28.40
2022-12-01T17:20:09.789Z,29.25
2022-12-01T17:22:38.570Z,31.83
2022-12-01T17:25:09.468Z,29.15
2022-12-01T17:27:37.445Z,31.35
2022-12-01T17:30:10.986Z,30.63
2022-12-01T17:32:41.953Z,33.20
2022-12-01T17:35:10.913Z,30.20
2022-12-01T17:37:38.928Z,32.20
2022-12-01T17:40:09.015Z,30.10
2022-12-01T17:42:37.263Z,29.33
2022-12-01T17:45:07.883Z,29.77
2022-12-01T17:47:35.883Z,33.15
2022-12-01T17:50:03.940Z,32.08
2022-12-01T17:52:31.859Z,28.17
2022-12-01T17:54:59.875Z,32.03
2022-12-01T17:57:27.968Z,32.35
2022-12-01T17:59:56.003Z,28.25
2022-12-01T18:02:25.559Z,27.92
2022-12-01T18:04:54.179Z,30.85
2022-12-01T18:07:23.019Z,30.35
2022-12-01T18:09:51.067Z,33.03
2022-12-01T18:12:18.983Z,32.72
2022-12-01T18:14:47.461Z,33.33
2022-12-01T18:17:15.515Z,32.38
2022-12-01T18:19:44.720Z,39.05
2022-12-01T18:22:12.625Z,33.80
2022-12-01T18:24:40.595Z,34.67
2022-12-01T18:27:08.516Z,31.90
2022-12-01T18:29:36.443Z,30.27
2022-12-01T18:32:04.627Z,32.15
2022-12-01T18:34:32.546Z,31.58
2022-12-01T18:37:06.843Z,30.58
2022-12-01T18:39:40.140Z,32.80
2022-12-01T18:42:08.306Z,32.60
2022-12-01T18:44:36.396Z,35.50
2022-12-01T18:47:04.668Z,33.45
2022-12-01T18:49:32.788Z,35.38
2022-12-01T18:52:06.138Z,32.53
2022-12-01T18:54:35.790Z,30.55
2022-12-01T18:57:03.625Z,35.25
2022-12-01T18:59:31.649Z,32.75
2022-12-01T19:01:59.516Z,37.30
2022-12-01T19:04:27.381Z,44.90
2022-12-01T19:06:55.612Z,36.20
2022-12-01T19:09:24.808Z,37.65
2022-12-01T19:11:59.571Z,33.63
2022-12-01T19:14:28.905Z,40.90
2022-12-01T19:16:57.194Z,39.20
2022-12-01T19:19:25.104Z,37.10
2022-12-01T19:21:53.120Z,38.42
2022-12-01T19:24:21.297Z,34.58
2022-12-01T19:26:50.457Z,40.20
2022-12-01T19:29:18.359Z,38.13
2022-12-01T19:31:46.276Z,38.95
2022-12-01T19:34:14.154Z,42.10
2022-12-01T19:36:42.007Z,37.80
2022-12-01T19:39:10.149Z,40.70
2022-12-01T19:41:38.443Z,36.17
2022-12-01T19:44:07.772Z,37.60
2022-12-01T19:46:35.621Z,41.13
2022-12-01T19:49:03.661Z,40.92
2022-12-01T19:51:34.891Z,42.15
2022-12-01T19:54:02.997Z,27.85
2022-12-01T19:56:31.446Z,42.97
2022-12-01T19:58:59.802Z,41.47
2022-12-01T20:01:29.670Z,40.00
2022-12-01T20:03:57.611Z,45.60
2022-12-01T20:06:27.302Z,42.10
2022-12-01T20:08:56.780Z,44.90
2022-12-01T20:11:25.458Z,43.28
2022-12-01T20:13:53.478Z,45.60
2022-12-01T20:16:23.366Z,44.25
2022-12-01T20:18:54.078Z,46.60
2022-12-01T20:21:23.508Z,43.70
2022-12-01T20:23:55.255Z,42.83
2022-12-01T20:26:27.554Z,42.67
2022-12-01T20:29:01.188Z,45.47
2022-12-01T20:31:30.593Z,44.65
2022-12-01T20:34:01.346Z,43.70
2022-12-01T20:36:29.466Z,44.75
2022-12-01T20:38:57.533Z,47.10
2022-12-01T20:41:25.374Z,42.58
2022-12-01T20:43:53.280Z,40.92
2022-12-01T20:46:21.167Z,51.45
2022-12-01T20:48:49.060Z,41.35
2022-12-01T20:51:18.877Z,47.80
2022-12-01T20:54:05.464Z,44.20
2022-12-01T20:56:34.889Z,44.78
2022-12-01T20:59:02.695Z,44.17
2022-12-01T21:01:30.585Z,47.92
2022-12-01T21:03:58.501Z,49.97
2022-12-01T21:06:29.048Z,46.15
2022-12-01T21:08:57.355Z,45.28
2022-12-01T21:11:41.679Z,45.30
2022-12-01T21:14:16.812Z,45.22
2022-12-01T21:16:48.177Z,43.70
2022-12-01T21:19:22.903Z,34.25
2022-12-01T21:21:52.127Z,42.33
2022-12-01T21:24:22.415Z,45.65
2022-12-01T21:26:54.505Z,50.05
2022-12-01T21:29:25.455Z,46.45
2022-12-01T21:31:55.092Z,49.28
2022-12-01T21:34:24.666Z,47.30
2022-12-01T21:36:57.037Z,47.47
2022-12-01T21:39:26.378Z,50.15
2022-12-01T21:41:57.137Z,49.72
2022-12-01T21:44:33.065Z,49.67
2022-12-01T21:47:14.298Z,48.05
2022-12-01T21:49:42.247Z,45.22
2022-12-01T21:52:17.594Z,55.95
2022-12-01T21:54:45.443Z,48.08
2022-12-01T21:57:32.823Z,48.08
2022-12-01T22:00:25.989Z,52.97
2022-12-01T22:03:07.339Z,48.17
2022-12-01T22:05:39.124Z,53.72
2022-12-01T22:08:21.123Z,33.40
2022-12-01T22:11:00.436Z,50.40
2022-12-01T22:13:37.282Z,49.95
2022-12-01T22:16:05.289Z,51.33
2022-12-01T22:18:37.462Z,52.92
2022-12-01T22:21:35.336Z,49.20
2022-12-01T22:24:40.886Z,52.25
2022-12-01T22:27:29.335Z,46.63
2022-12-01T22:29:59.632Z,48.95
2022-12-01T22:32:37.165Z,48.90
2022-12-01T22:35:30.312Z,50.45
2022-12-01T22:38:21.186Z,50.58
2022-12-01T22:40:56.555Z,47.33
2022-12-01T22:43:46.253Z,54.47
2022-12-01T22:46:30.097Z,51.88
2022-12-01T22:48:59.380Z,47.97
2022-12-01T22:51:36.342Z,48.00
2022-12-01T22:54:22.763Z,48.45
2022-12-01T22:57:00.079Z,51.65
2022-12-01T22:59:32.603Z,51.38
2022-12-01T23:02:02.057Z,52.65
2022-12-01T23:04:32.837Z,49.38
2022-12-01T23:07:07.838Z,49.25
2022-12-01T23:09:38.637Z,51.00
2022-12-01T23:12:21.850Z,49.78
2022-12-01T23:14:53.920Z,50.38
2022-12-01T23:17:24.239Z,51.08
2022-12-01T23:19:53.868Z,51.95
2022-12-01T23:22:21.723Z,51.70
2022-12-01T23:24:49.737Z,52.45
2022-12-01T23:27:19.061Z,54.35
2022-12-01T23:29:47.037Z,50.47
2022-12-01T23:32:14.855Z,56.33
2022-12-01T23:34:42.826Z,57.42
2022-12-01T23:37:27.886Z,58.10
2022-12-01T23:39:56.752Z,51.90
2022-12-01T23:42:25.918Z,57.47
2022-12-01T23:44:54.024Z,51.83
2022-12-01T23:47:26.021Z,55.50
2022-12-01T23:49:59.944Z,50.25
2022-12-01T23:52:33.562Z,51.53
2022-12-01T23:55:01.728Z,52.33
2022-12-01T23:57:32.142Z,48.33
